createdAt,value
2023-05-19T00:02:20.840Z,10.39
2023-05-19T00:04:49.644Z,10.50
2023-05-19T00:07:25.628Z,10.57
2023-05-19T00:09:53.082Z,10.68
2023-05-19T00:12:20.624Z,10.61
2023-05-19T00:14:48.140Z,10.53
2023-05-19T00:17:16.899Z,10.47
2023-05-19T00:19:45.169Z,10.57
2023-05-19T00:22:12.493Z,10.39
2023-05-19T00:24:40.160Z,10.52
2023-05-19T00:27:07.415Z,10.30
2023-05-19T00:29:34.725Z,10.22
2023-05-19T00:32:02.007Z,10.19
2023-05-19T00:34:29.230Z,10.43
2023-05-19T00:36:56.413Z,10.29
2023-05-19T00:39:23.599Z,10.22
2023-05-19T00:41:51.082Z,10.39
2023-05-19T00:44:18.274Z,10.09
2023-05-19T00:46:45.621Z,10.24
2023-05-19T00:49:12.867Z,10.35
2023-05-19T00:51:41.044Z,10.12
2023-05-19T00:54:08.994Z,10.09
2023-05-19T00:56:36.208Z,10.14
2023-05-19T00:59:03.482Z,10.24
2023-05-19T01:01:32.366Z,10.50
2023-05-19T01:04:00.658Z,10.18
2023-05-19T01:06:29.577Z,10.18
2023-05-19T01:08:57.388Z,10.27
2023-05-19T01:11:24.585Z,9.93
2023-05-19T01:13:52.210Z,10.22
2023-05-19T01:16:46.383Z,10.05
2023-05-19T01:19:48.765Z,10.27
2023-05-19T01:22:33.094Z,10.33
2023-05-19T01:25:34.058Z,10.15
2023-05-19T01:28:40.890Z,10.21
2023-05-19T01:31:11.969Z,9.74
2023-05-19T01:33:43.593Z,10.01
2023-05-19T01:36:13.589Z,10.05
2023-05-19T01:38:43.263Z,9.99
2023-05-19T01:41:12.235Z,9.83
2023-05-19T01:43:40.410Z,10.17
2023-05-19T01:46:08.654Z,10.02
2023-05-19T01:48:36.651Z,10.09
2023-05-19T01:51:04.122Z,9.83
2023-05-19T01:53:31.650Z,9.87
2023-05-19T01:55:59.237Z,9.74
2023-05-19T01:58:53.139Z,9.72
2023-05-19T02:01:30.724Z,10.11
2023-05-19T02:04:28.104Z,10.19
2023-05-19T02:07:26.368Z,9.86
2023-05-19T02:10:04.660Z,9.58
2023-05-19T02:12:37.677Z,9.66
2023-05-19T02:15:09.440Z,9.79
2023-05-19T02:17:48.352Z,9.48
2023-05-19T02:20:16.763Z,9.63
2023-05-19T02:22:45.258Z,9.84
2023-05-19T02:25:12.667Z,9.41
2023-05-19T02:27:41.307Z,9.65
2023-05-19T02:30:09.839Z,9.65
2023-05-19T02:32:37.302Z,9.80
2023-05-19T02:35:05.202Z,9.66
2023-05-19T02:37:32.537Z,9.68
2023-05-19T02:39:59.823Z,9.36
2023-05-19T02:42:27.023Z,9.79
2023-05-19T02:44:55.586Z,9.83
2023-05-19T02:47:23.045Z,9.50
2023-05-19T02:49:50.374Z,9.65
2023-05-19T02:52:17.614Z,9.62
2023-05-19T02:54:44.876Z,9.41
2023-05-19T02:57:12.048Z,9.47
2023-05-19T02:59:39.241Z,9.57
2023-05-19T03:02:06.544Z,9.67
2023-05-19T03:04:42.057Z,9.53
2023-05-19T03:07:10.370Z,9.27
2023-05-19T03:09:38.078Z,9.56
2023-05-19T03:12:07.445Z,9.56
2023-05-19T03:14:37.356Z,9.29
2023-05-19T03:17:07.475Z,9.29
2023-05-19T03:19:34.764Z,9.41
2023-05-19T03:22:02.104Z,9.22
2023-05-19T03:24:29.306Z,9.06
2023-05-19T03:26:56.514Z,9.28
2023-05-19T03:29:23.711Z,9.31
2023-05-19T03:31:52.019Z,9.33
2023-05-19T03:34:19.233Z,9.20
2023-05-19T03:36:46.396Z,9.38
2023-05-19T03:39:13.568Z,9.00
2023-05-19T03:41:40.734Z,9.19
2023-05-19T03:44:07.960Z,9.27
2023-05-19T03:46:35.154Z,9.21
2023-05-19T03:49:02.359Z,9.12
2023-05-19T03:51:30.002Z,9.12
2023-05-19T03:53:57.254Z,9.07
2023-05-19T03:56:26.472Z,8.97
2023-05-19T03:58:54.786Z,9.27
2023-05-19T04:01:22.014Z,9.18
2023-05-19T04:03:49.336Z,9.30
2023-05-19T04:06:17.528Z,8.90
2023-05-19T04:08:44.813Z,9.11
2023-05-19T04:11:12.743Z,9.05
2023-05-19T04:13:40.012Z,9.12
2023-05-19T04:16:07.683Z,9.21
2023-05-19T04:18:34.891Z,9.14
2023-05-19T04:21:02.124Z,9.03
2023-05-19T04:23:29.354Z,8.83
2023-05-19T04:25:58.050Z,8.79
2023-05-19T04:28:25.288Z,9.16
2023-05-19T04:30:52.825Z,9.09
2023-05-19T04:33:20.058Z,9.16
2023-05-19T04:35:47.330Z,9.34
2023-05-19T04:38:18.815Z,9.40
2023-05-19T04:40:46.077Z,9.67
2023-05-19T04:43:13.231Z,9.65
2023-05-19T04:45:42.468Z,9.71
2023-05-19T04:48:09.647Z,10.18
2023-05-19T04:50:38.528Z,9.91
2023-05-19T04:53:05.947Z,10.27
2023-05-19T04:55:34.179Z,10.38
2023-05-19T04:58:01.362Z,10.56
2023-05-19T05:00:29.515Z,10.68
2023-05-19T05:02:59.375Z,10.57
2023-05-19T05:05:26.669Z,10.60
2023-05-19T05:07:54.097Z,10.68
2023-05-19T05:10:21.917Z,10.66
2023-05-19T05:12:49.845Z,10.61
2023-05-19T05:15:17.782Z,11.23
2023-05-19T05:17:45.383Z,10.88
2023-05-19T05:20:13.455Z,11.14
2023-05-19T05:22:41.045Z,11.32
2023-05-19T05:25:09.428Z,11.35
2023-05-19T05:27:36.812Z,11.31
2023-05-19T05:30:05.160Z,11.44
2023-05-19T05:32:32.610Z,11.54
2023-05-19T05:35:00.169Z,11.60
2023-05-19T05:37:27.995Z,11.17
2023-05-19T05:39:55.192Z,11.20
2023-05-19T05:42:22.367Z,11.34
2023-05-19T05:44:49.607Z,11.62
2023-05-19T05:47:17.107Z,11.33
2023-05-19T05:49:48.040Z,11.47
2023-05-19T05:52:18.333Z,11.48
2023-05-19T05:54:46.304Z,11.61
2023-05-19T05:57:13.842Z,11.44
2023-05-19T05:59:41.001Z,11.64
2023-05-19T06:02:08.595Z,11.77
2023-05-19T06:04:35.855Z,11.87
2023-05-19T06:07:03.274Z,11.80
2023-05-19T06:09:30.687Z,11.88
2023-05-19T06:12:00.154Z,12.07
2023-05-19T06:14:27.506Z,12.21
2023-05-19T06:16:54.758Z,12.03
2023-05-19T06:19:22.123Z,12.32
2023-05-19T06:21:49.413Z,12.42
2023-05-19T06:24:16.702Z,12.44
2023-05-19T06:26:43.979Z,12.32
2023-05-19T06:29:11.376Z,12.33
2023-05-19T06:31:38.599Z,12.53
2023-05-19T06:34:05.984Z,12.26
2023-05-19T06:36:35.152Z,12.57
2023-05-19T06:39:02.875Z,12.99
2023-05-19T06:41:30.205Z,12.86
2023-05-19T06:43:57.380Z,13.11
2023-05-19T06:46:24.662Z,13.23
2023-05-19T06:48:51.954Z,13.43
2023-05-19T06:51:21.722Z,13.28
2023-05-19T06:53:49.481Z,13.54
2023-05-19T06:56:17.945Z,12.85
2023-05-19T06:58:45.868Z,12.93
2023-05-19T07:01:13.064Z,13.58
2023-05-19T07:03:40.385Z,13.95
2023-05-19T07:06:08.459Z,14.27
2023-05-19T07:08:37.158Z,14.57
2023-05-19T07:11:04.661Z,14.65
2023-05-19T07:13:32.913Z,14.61
2023-05-19T07:16:00.258Z,14.95
2023-05-19T07:18:27.620Z,14.86
2023-05-19T07:20:54.864Z,14.73
2023-05-19T07:23:22.076Z,15.19
2023-05-19T07:25:49.964Z,14.93
2023-05-19T07:28:17.158Z,15.08
2023-05-19T07:30:44.501Z,15.24
2023-05-19T07:33:11.785Z,15.16
2023-05-19T07:35:39.754Z,15.32
2023-05-19T07:38:07.438Z,15.69
2023-05-19T07:40:34.769Z,17.15
2023-05-19T07:43:02.040Z,17.47
2023-05-19T07:45:29.378Z,18.12
2023-05-19T07:47:56.653Z,19.15
2023-05-19T07:50:23.882Z,20.02
2023-05-19T07:52:51.469Z,19.48
2023-05-19T07:55:19.214Z,19.89
2023-05-19T07:57:46.430Z,20.16
2023-05-19T08:00:14.346Z,20.68
2023-05-19T08:02:41.722Z,21.35
2023-05-19T08:05:09.785Z,21.58
2023-05-19T08:07:37.194Z,20.77
2023-05-19T08:10:04.782Z,20.86
2023-05-19T08:12:32.359Z,22.40
2023-05-19T08:15:01.377Z,22.73
2023-05-19T08:17:28.942Z,22.43
2023-05-19T08:19:56.197Z,22.86
2023-05-19T08:22:23.384Z,22.99
2023-05-19T08:24:51.760Z,22.77
2023-05-19T08:27:19.008Z,22.12
2023-05-19T08:29:46.207Z,21.57
2023-05-19T08:32:13.556Z,22.17
2023-05-19T08:34:41.336Z,23.01
2023-05-19T08:37:08.581Z,21.93
2023-05-19T08:39:35.834Z,22.26
2023-05-19T08:42:03.089Z,22.04
2023-05-19T08:44:31.166Z,22.83
2023-05-19T08:47:05.334Z,22.38
2023-05-19T08:49:38.222Z,22.37
2023-05-19T08:52:52.474Z,23.08
2023-05-19T08:55:43.909Z,23.31
2023-05-19T08:58:12.950Z,22.68
2023-05-19T09:00:40.382Z,23.09
2023-05-19T09:05:39.219Z,23.71
2023-05-19T09:08:06.499Z,23.50
2023-05-19T09:10:33.689Z,24.27
2023-05-19T09:13:01.432Z,23.92
2023-05-19T09:15:28.612Z,22.94
2023-05-19T09:18:10.874Z,24.01
2023-05-19T09:20:40.182Z,24.75
2023-05-19T09:23:08.316Z,23.02
2023-05-19T09:25:35.685Z,23.03
2023-05-19T09:28:02.964Z,22.57
2023-05-19T09:30:30.188Z,20.69
2023-05-19T09:32:57.380Z,20.55
2023-05-19T09:35:24.569Z,20.29
2023-05-19T09:37:52.576Z,19.91
2023-05-19T09:40:19.848Z,20.14
2023-05-19T09:42:48.706Z,20.70
2023-05-19T09:45:16.509Z,20.32
2023-05-19T09:47:43.934Z,19.97
2023-05-19T09:50:14.026Z,19.13
2023-05-19T09:52:44.807Z,20.58
2023-05-19T09:55:13.712Z,20.16
2023-05-19T09:57:41.313Z,20.42
2023-05-19T10:00:19.680Z,20.19
2023-05-19T10:02:48.701Z,20.75
2023-05-19T10:05:20.124Z,21.75
2023-05-19T10:07:51.608Z,20.70
2023-05-19T10:10:21.970Z,20.86
2023-05-19T10:12:49.909Z,20.09
2023-05-19T10:15:22.748Z,19.28
2023-05-19T10:17:51.252Z,18.85
2023-05-19T10:20:18.784Z,19.20
2023-05-19T10:22:46.536Z,19.38
2023-05-19T10:25:20.033Z,19.11
2023-05-19T10:27:56.563Z,18.60
2023-05-19T10:30:30.101Z,19.18
2023-05-19T10:33:01.670Z,19.87
2023-05-19T10:36:13.882Z,21.08
2023-05-19T10:38:58.845Z,19.83
2023-05-19T10:41:47.100Z,19.51
2023-05-19T10:44:34.926Z,18.98
2023-05-19T10:47:02.384Z,20.04
2023-05-19T10:49:36.075Z,20.28
2023-05-19T10:52:18.669Z,20.05
2023-05-19T10:54:48.913Z,20.98
2023-05-19T10:57:17.544Z,20.94
2023-05-19T10:59:44.960Z,20.87
2023-05-19T11:02:44.178Z,21.89
2023-05-19T11:05:18.329Z,20.96
2023-05-19T11:07:57.342Z,20.16
2023-05-19T11:10:25.430Z,20.59
2023-05-19T11:12:52.631Z,21.09
2023-05-19T11:15:26.499Z,21.42
2023-05-19T11:17:54.937Z,21.23
2023-05-19T11:20:28.357Z,20.55
2023-05-19T11:23:17.916Z,20.50
2023-05-19T11:25:49.414Z,20.13
2023-05-19T11:28:19.897Z,20.15
2023-05-19T11:30:52.678Z,20.19
2023-05-19T11:33:21.372Z,20.83
2023-05-19T11:35:51.064Z,20.97
2023-05-19T11:38:20.532Z,21.01
2023-05-19T11:40:52.468Z,21.21
2023-05-19T11:43:19.643Z,21.30
2023-05-19T11:45:47.008Z,21.23
2023-05-19T11:48:18.320Z,20.34
2023-05-19T11:50:46.746Z,19.84
2023-05-19T11:53:16.429Z,20.04
2023-05-19T11:55:47.947Z,19.51
2023-05-19T11:58:16.200Z,19.76
2023-05-19T12:00:47.354Z,19.46
2023-05-19T12:03:14.979Z,20.35
2023-05-19T12:05:46.678Z,20.25
2023-05-19T12:08:17.538Z,20.39
2023-05-19T12:10:50.334Z,20.01
2023-05-19T12:13:17.608Z,20.05
2023-05-19T12:15:44.996Z,20.15
2023-05-19T12:18:12.283Z,20.88
2023-05-19T12:20:39.785Z,20.98
2023-05-19T12:23:07.477Z,20.35
2023-05-19T12:25:35.383Z,20.61
2023-05-19T12:28:03.631Z,20.83
2023-05-19T12:30:33.136Z,21.25
2023-05-19T12:33:01.884Z,21.74
2023-05-19T12:35:33.278Z,21.50
2023-05-19T12:38:07.253Z,21.47
2023-05-19T12:40:36.517Z,22.05
2023-05-19T12:43:04.470Z,21.12
2023-05-19T12:45:36.804Z,21.01
2023-05-19T12:48:06.652Z,20.86
2023-05-19T12:50:34.761Z,21.25
2023-05-19T12:53:02.445Z,20.35
2023-05-19T12:55:30.152Z,20.21
2023-05-19T12:57:58.546Z,19.72
2023-05-19T13:00:31.267Z,19.95
2023-05-19T13:03:05.119Z,19.85
2023-05-19T13:05:38.457Z,19.77
2023-05-19T13:08:09.133Z,19.71
2023-05-19T13:10:38.735Z,20.29
2023-05-19T13:13:08.298Z,20.29
2023-05-19T13:15:40.188Z,20.22
2023-05-19T13:18:10.079Z,20.11
2023-05-19T13:20:40.703Z,20.70
2023-05-19T13:23:13.732Z,20.51
2023-05-19T13:25:41.980Z,20.06
2023-05-19T13:28:09.888Z,19.70
2023-05-19T13:30:40.195Z,19.36
2023-05-19T13:33:07.838Z,19.45
2023-05-19T13:35:38.791Z,19.39
2023-05-19T13:38:09.569Z,19.46
2023-05-19T13:40:37.653Z,19.52
2023-05-19T13:43:05.833Z,19.29
2023-05-19T13:45:33.167Z,19.61
2023-05-19T13:48:00.489Z,20.13
2023-05-19T13:50:27.913Z,20.37
2023-05-19T13:52:55.100Z,20.40
2023-05-19T13:55:23.292Z,20.25
2023-05-19T13:57:50.863Z,20.11
2023-05-19T14:00:19.245Z,20.04
2023-05-19T14:02:46.889Z,19.86
2023-05-19T14:05:14.172Z,19.96
2023-05-19T14:07:42.380Z,19.70
2023-05-19T14:10:10.122Z,19.95
2023-05-19T14:12:55.022Z,19.89
2023-05-19T14:15:24.467Z,20.09
2023-05-19T14:17:53.176Z,20.04
2023-05-19T14:20:20.663Z,20.32
2023-05-19T14:22:47.917Z,20.47
2023-05-19T14:25:15.139Z,20.30
2023-05-19T14:27:42.361Z,20.38
2023-05-19T14:30:10.109Z,20.27
2023-05-19T14:32:37.334Z,20.17
2023-05-19T14:35:05.235Z,20.23
2023-05-19T14:37:32.649Z,20.23
2023-05-19T14:40:00.240Z,20.39
2023-05-19T14:42:27.421Z,19.74
2023-05-19T14:44:54.615Z,19.56
2023-05-19T14:47:21.932Z,19.48
2023-05-19T14:49:49.141Z,19.59
2023-05-19T14:52:16.340Z,19.36
2023-05-19T14:54:43.766Z,19.36
2023-05-19T14:57:10.948Z,19.52
2023-05-19T14:59:38.865Z,19.52
2023-05-19T15:02:07.082Z,19.53
2023-05-19T15:04:34.260Z,19.73
2023-05-19T15:09:31.722Z,19.74
2023-05-19T15:12:01.044Z,19.72
2023-05-19T15:14:30.502Z,19.70
2023-05-19T15:16:58.597Z,19.64
2023-05-19T15:19:26.121Z,19.59
2023-05-19T15:21:53.705Z,19.71
2023-05-19T15:24:21.067Z,19.78
2023-05-19T15:26:48.363Z,19.25
2023-05-19T15:29:15.822Z,19.26
2023-05-19T15:31:43.316Z,19.16
2023-05-19T15:34:10.645Z,19.56
2023-05-19T15:36:37.857Z,19.40
2023-05-19T15:39:05.957Z,19.46
2023-05-19T15:41:33.154Z,19.60
2023-05-19T15:44:00.802Z,19.59
2023-05-19T15:46:31.111Z,19.32
2023-05-19T15:48:58.488Z,19.26
2023-05-19T15:51:25.897Z,19.41
2023-05-19T15:53:53.225Z,19.61
2023-05-19T15:56:21.490Z,19.69
2023-05-19T15:58:48.748Z,19.66
2023-05-19T16:01:16.689Z,19.60
2023-05-19T16:03:45.913Z,19.53
2023-05-19T16:06:13.465Z,19.41
2023-05-19T16:08:40.814Z,19.06
2023-05-19T16:11:08.090Z,18.92
2023-05-19T16:13:35.321Z,19.00
2023-05-19T16:16:02.937Z,18.95
2023-05-19T16:18:30.211Z,19.11
2023-05-19T16:20:57.481Z,18.93
2023-05-19T16:23:25.003Z,19.05
2023-05-19T16:25:54.746Z,19.17
2023-05-19T16:28:24.450Z,19.13
2023-05-19T16:30:52.025Z,19.12
2023-05-19T16:33:19.286Z,19.31
2023-05-19T16:35:46.487Z,19.20
2023-05-19T16:38:13.692Z,18.95
2023-05-19T16:40:40.849Z,19.27
2023-05-19T16:43:08.039Z,19.11
2023-05-19T16:45:35.233Z,19.23
2023-05-19T16:48:02.664Z,19.19
2023-05-19T16:50:29.968Z,19.04
2023-05-19T16:52:57.166Z,19.16
2023-05-19T16:55:25.357Z,19.08
2023-05-19T16:57:52.594Z,19.05
2023-05-19T17:00:19.952Z,18.98
2023-05-19T17:02:47.335Z,18.67
2023-05-19T17:05:14.676Z,18.72
2023-05-19T17:07:41.848Z,18.70
2023-05-19T17:10:09.553Z,18.81
2023-05-19T17:12:36.905Z,18.80
2023-05-19T17:15:04.741Z,18.74
2023-05-19T17:17:31.988Z,18.99
2023-05-19T17:19:59.646Z,19.07
2023-05-19T17:22:28.760Z,18.92
2023-05-19T17:24:57.492Z,18.85
2023-05-19T17:27:24.763Z,18.80
2023-05-19T17:29:51.921Z,18.90
2023-05-19T17:32:22.044Z,18.66
2023-05-19T17:34:49.281Z,18.86
2023-05-19T17:37:19.012Z,18.50
2023-05-19T17:39:46.180Z,18.65
2023-05-19T17:42:13.372Z,18.72
2023-05-19T17:44:41.312Z,18.53
2023-05-19T17:47:08.527Z,18.57
2023-05-19T17:49:35.876Z,18.33
2023-05-19T17:52:03.552Z,18.38
2023-05-19T17:54:30.906Z,18.36
2023-05-19T17:57:01.520Z,18.38
2023-05-19T17:59:30.154Z,18.26
2023-05-19T18:01:57.870Z,18.14
2023-05-19T18:04:25.385Z,18.13
2023-05-19T18:06:53.606Z,18.09
2023-05-19T18:09:25.970Z,18.06
2023-05-19T18:11:55.010Z,18.05
2023-05-19T18:14:22.212Z,17.96
2023-05-19T18:16:49.985Z,17.90
2023-05-19T18:19:17.357Z,17.81
2023-05-19T18:21:44.598Z,17.78
2023-05-19T18:24:11.766Z,17.93
2023-05-19T18:26:41.734Z,17.73
2023-05-19T18:29:11.741Z,17.81
2023-05-19T18:31:39.038Z,17.46
2023-05-19T18:34:06.613Z,17.39
2023-05-19T18:36:35.553Z,17.47
2023-05-19T18:39:04.367Z,17.80
2023-05-19T18:41:32.053Z,17.61
2023-05-19T18:43:59.268Z,17.31
2023-05-19T18:46:26.501Z,17.34
2023-05-19T18:48:53.903Z,17.12
2023-05-19T18:51:21.720Z,17.60
2023-05-19T18:53:50.098Z,17.09
2023-05-19T18:56:26.162Z,17.05
2023-05-19T18:58:54.847Z,16.91
2023-05-19T19:01:22.152Z,16.89
2023-05-19T19:03:49.621Z,17.03
2023-05-19T19:06:17.362Z,16.71
2023-05-19T19:08:44.540Z,16.69
2023-05-19T19:11:11.901Z,16.86
2023-05-19T19:13:39.748Z,16.80
2023-05-19T19:16:07.345Z,17.07
2023-05-19T19:18:36.255Z,17.03
2023-05-19T19:21:05.810Z,16.80
2023-05-19T19:23:33.256Z,16.88
2023-05-19T19:26:00.678Z,16.69
2023-05-19T19:28:27.921Z,16.70
2023-05-19T19:30:55.179Z,16.80
2023-05-19T19:33:22.367Z,16.61
2023-05-19T19:35:49.570Z,16.46
2023-05-19T19:38:16.770Z,16.46
2023-05-19T19:40:44.004Z,16.41
2023-05-19T19:43:11.295Z,16.16
2023-05-19T19:45:41.645Z,16.13
2023-05-19T19:48:08.912Z,16.23
2023-05-19T19:50:36.400Z,16.30
2023-05-19T19:53:03.876Z,16.15
2023-05-19T19:55:31.733Z,15.94
2023-05-19T19:57:58.953Z,16.27
2023-05-19T20:00:26.280Z,16.18
2023-05-19T20:03:03.482Z,15.77
2023-05-19T20:05:31.377Z,16.02
2023-05-19T20:07:58.603Z,15.89
2023-05-19T20:10:25.808Z,15.62
2023-05-19T20:12:53.156Z,15.72
2023-05-19T20:15:20.440Z,15.77
2023-05-19T20:17:47.734Z,15.76
2023-05-19T20:20:14.996Z,15.67
2023-05-19T20:22:44.307Z,15.65
2023-05-19T20:25:12.138Z,15.76
2023-05-19T20:27:39.375Z,15.62
2023-05-19T20:30:07.439Z,15.80
2023-05-19T20:32:35.045Z,15.32
2023-05-19T20:35:02.350Z,15.70
2023-05-19T20:37:29.586Z,15.60
2023-05-19T20:39:56.777Z,15.28
2023-05-19T20:42:23.994Z,15.53
2023-05-19T20:44:51.300Z,15.63
2023-05-19T20:47:19.210Z,15.24
2023-05-19T20:49:46.972Z,15.43
2023-05-19T20:52:18.385Z,15.05
2023-05-19T20:54:46.385Z,15.42
2023-05-19T20:57:13.556Z,15.15
2023-05-19T20:59:40.866Z,15.22
2023-05-19T21:02:08.060Z,15.16
2023-05-19T21:04:36.237Z,14.99
2023-05-19T21:07:03.621Z,15.01
2023-05-19T21:09:30.854Z,15.01
2023-05-19T21:11:58.053Z,15.18
2023-05-19T21:14:25.432Z,14.85
2023-05-19T21:16:54.295Z,15.07
2023-05-19T21:19:22.850Z,14.95
2023-05-19T21:21:50.277Z,14.67
2023-05-19T21:24:17.469Z,14.90
2023-05-19T21:26:44.806Z,14.98
2023-05-19T21:29:12.047Z,15.08
2023-05-19T21:31:39.433Z,14.74
2023-05-19T21:34:09.512Z,14.48
2023-05-19T21:36:36.964Z,14.68
2023-05-19T21:39:04.489Z,14.48
2023-05-19T21:41:32.518Z,14.77
2023-05-19T21:43:59.765Z,14.63
2023-05-19T21:46:28.923Z,14.47
2023-05-19T21:48:56.203Z,14.35
2023-05-19T21:51:23.432Z,14.65
2023-05-19T21:53:50.653Z,14.38
2023-05-19T21:56:17.856Z,14.43
2023-05-19T21:58:45.023Z,14.20
2023-05-19T22:01:13.286Z,14.54
2023-05-19T22:03:40.602Z,14.36
2023-05-19T22:06:08.233Z,14.11
2023-05-19T22:08:35.579Z,14.16
2023-05-19T22:11:02.831Z,13.83
2023-05-19T22:13:30.262Z,14.02
2023-05-19T22:15:58.163Z,14.19
2023-05-19T22:18:25.392Z,14.19
2023-05-19T22:20:52.597Z,14.13
2023-05-19T22:23:19.798Z,13.83
2023-05-19T22:25:47.008Z,13.94
2023-05-19T22:28:14.249Z,13.72
2023-05-19T22:30:42.211Z,13.79
2023-05-19T22:33:11.372Z,13.92
2023-05-19T22:35:38.873Z,13.59
2023-05-19T22:38:07.491Z,13.65
2023-05-19T22:40:36.935Z,13.65
2023-05-19T22:43:04.363Z,13.69
2023-05-19T22:45:32.301Z,13.81
2023-05-19T22:47:59.647Z,13.76
2023-05-19T22:50:26.882Z,13.69
2023-05-19T22:52:54.063Z,13.54
2023-05-19T22:55:21.367Z,13.51
2023-05-19T22:57:48.636Z,13.79
2023-05-19T23:00:18.577Z,13.44
2023-05-19T23:02:45.900Z,13.48
2023-05-19T23:05:13.225Z,13.54
2023-05-19T23:07:40.737Z,13.89
2023-05-19T23:10:08.566Z,13.74
2023-05-19T23:12:35.805Z,13.50
2023-05-19T23:15:03.752Z,13.51
2023-05-19T23:17:31.064Z,13.09
2023-05-19T23:19:58.524Z,13.46
2023-05-19T23:22:26.551Z,13.35
2023-05-19T23:24:53.848Z,13.23
2023-05-19T23:27:21.046Z,12.93
2023-05-19T23:29:49.367Z,12.89
2023-05-19T23:32:16.605Z,13.03
2023-05-19T23:34:43.904Z,13.26
2023-05-19T23:37:11.782Z,13.30
2023-05-19T23:39:39.006Z,13.26
2023-05-19T23:42:06.569Z,12.80
2023-05-19T23:44:33.813Z,13.17
2023-05-19T23:47:01.142Z,13.05
2023-05-19T23:49:28.359Z,12.89
2023-05-19T23:51:55.617Z,12.97
2023-05-19T23:54:22.846Z,12.94
2023-05-19T23:56:50.075Z,13.05
2023-05-19T23:59:17.279Z,12.90
